Ewen, MI

1:10 PM EST on November 24, 2014 (GMT -0500)
Eagle River Union | Change Station
CLOSE
Current Station
Airport
Location: Eagle River,
Elevation: 1640 ft
Nearby Weather Stations
Active Advisory: Lake Effect Snow Advisory

Elev 1640 ft 45.93 °N, 89.27 °W | Updated 15 minutes ago

Snow
Snow
31 °F
Feels Like 20 °F
N
17
Wind Variable Wind from North
Gusts 22 mph

Today
High -- | Low -- °F
--% Chance of Precip.
Yesterday
High -- | Low -- °F
Precip. -- in
8:12 AM 5:16 PM
Waxing Crescent, 6% visible
Pressure 29.13 in
Visibility 2.0 miles
Clouds Mostly Cloudy 1000 ft
Overcast 1500 ft
Windchill 20 °F
Dew Point 30 °F
Humidity 94%
Rainfall 0.22 in
Snow Depth Not available.
UV 1 out of 12
Pollen .10 out of 12
Air Quality Not available.
Flu Activity Not available.
METAR KEGV 241755Z AUTO 35015G19KT 2SM -SN BKN010 OVC015 00/M01 A2913 RMK AO2 VIS 1 1/4V4 60001 T10041012 10020 21004

More Conditions Fewer Conditions

Pressure 29.13 in
Visibility 2.0 miles
Clouds Mostly Cloudy 1000 ft
Overcast 1500 ft
Windchill 20 °F
Dew Point 30 °F
Humidity 94%
Rainfall 0.22 in
Snow Depth Not available.
UV 1 out of 12
Pollen .10 out of 12
Air Quality Not available.
Flu Activity Not available.
METAR KEGV 241755Z AUTO 35015G19KT 2SM -SN BKN010 OVC015 00/M01 A2913 RMK AO2 VIS 1 1/4V4 60001 T10041012 10020 21004

More Conditions Fewer Conditions

10-Day Weather Forecast

Almanac

Astronomy

Nov. 24, 2014 Rise Set
Actual Time
Civil Twilight
Nautical Twilight
Astronomical Twilight
Moon
Length of Visible Light
Length of Day
Tomorrow will be .
, % of the Moon is Illuminated

Today's Extremes

State Highs State Lows

Community

WunderPhotos

Upload Photos

1,773,385 photos uploaded!

WunderBlogs® & News

Nearby

Air Quality

  Air Quality AQ Index Pollutant
Not available.

Snow Depth

Station Depth Elevation

Earthquake Activity

City Distance Mag. Time & Date
Minimum magnitude displayed is 2.5.

Coastal Water Temperatures

Place Temperature

Nearby Weather Stations